createdAt,value
2018-09-25T00:00:06.936Z,5.30
2018-09-25T00:02:42.128Z,5.20
2018-09-25T00:05:17.521Z,5.20
2018-09-25T00:07:52.693Z,5.20
2018-09-25T00:10:28.108Z,5.10
2018-09-25T00:13:03.245Z,5.20
2018-09-25T00:15:38.520Z,5.10
2018-09-25T00:18:13.614Z,5.10
2018-09-25T00:20:49.213Z,5.00
2018-09-25T00:23:24.346Z,5.00
2018-09-25T00:25:59.857Z,5.00
2018-09-25T00:28:35.107Z,4.90
2018-09-25T00:31:10.643Z,4.90
2018-09-25T00:33:45.673Z,4.80
2018-09-25T00:36:21.176Z,4.90
2018-09-25T00:38:56.354Z,4.80
2018-09-25T00:41:32.420Z,4.80
2018-09-25T00:44:07.578Z,4.80
2018-09-25T00:46:42.604Z,4.80
2018-09-25T00:49:17.669Z,4.80
2018-09-25T00:51:52.910Z,4.80
2018-09-25T00:54:28.080Z,4.70
2018-09-25T00:57:03.270Z,4.60
2018-09-25T00:59:38.684Z,4.60
2018-09-25T01:02:14.063Z,4.60
2018-09-25T01:04:49.717Z,4.60
2018-09-25T01:07:24.892Z,4.60
2018-09-25T01:10:00.276Z,4.60
2018-09-25T01:12:35.389Z,4.60
2018-09-25T01:15:11.046Z,4.50
2018-09-25T01:17:46.265Z,4.50
2018-09-25T01:20:21.917Z,4.50
2018-09-25T01:22:57.084Z,4.50
2018-09-25T01:25:32.287Z,4.40
2018-09-25T01:28:07.486Z,4.40
2018-09-25T01:30:43.202Z,4.40
2018-09-25T01:33:18.330Z,4.40
2018-09-25T01:35:53.499Z,4.40
2018-09-25T01:38:29.043Z,4.50
2018-09-25T01:41:04.369Z,4.50
2018-09-25T01:43:40.634Z,4.40
2018-09-25T01:46:15.780Z,4.40
2018-09-25T01:48:51.615Z,4.40
2018-09-25T01:51:26.590Z,4.40
2018-09-25T01:54:03.486Z,4.40
2018-09-25T01:56:38.808Z,4.30
2018-09-25T01:59:13.935Z,4.30
2018-09-25T02:01:49.236Z,4.20
2018-09-25T02:04:24.311Z,4.10
2018-09-25T02:06:59.525Z,4.10
2018-09-25T02:09:34.680Z,4.10
2018-09-25T02:12:09.691Z,4.20
2018-09-25T02:14:44.947Z,4.20
2018-09-25T02:17:20.051Z,4.20
2018-09-25T02:19:55.240Z,4.10
2018-09-25T02:22:30.400Z,4.10
2018-09-25T02:25:05.545Z,4.10
2018-09-25T02:27:40.572Z,4.10
2018-09-25T02:30:15.738Z,4.00
2018-09-25T02:32:50.864Z,4.00
2018-09-25T02:35:26.022Z,4.00
2018-09-25T02:38:01.026Z,3.90
2018-09-25T02:40:36.195Z,3.90
2018-09-25T02:43:11.287Z,3.90
2018-09-25T02:45:46.435Z,3.80
2018-09-25T02:48:21.547Z,3.80
2018-09-25T02:50:56.743Z,3.70
2018-09-25T02:53:31.762Z,3.70
2018-09-25T02:56:06.938Z,3.70
2018-09-25T02:58:42.124Z,3.80
2018-09-25T03:01:17.366Z,3.70
2018-09-25T03:03:52.417Z,3.70
2018-09-25T03:06:27.517Z,3.60
2018-09-25T03:09:02.595Z,3.60
2018-09-25T03:11:37.654Z,3.60
2018-09-25T03:14:12.944Z,3.70
2018-09-25T03:16:48.237Z,3.70
2018-09-25T03:19:23.410Z,3.70
2018-09-25T03:21:58.565Z,3.60
2018-09-25T03:24:33.768Z,3.60
2018-09-25T03:27:09.121Z,3.60
2018-09-25T03:29:44.335Z,3.60
2018-09-25T03:32:19.647Z,3.60
2018-09-25T03:34:54.804Z,3.60
2018-09-25T03:37:30.045Z,3.60
2018-09-25T03:40:05.275Z,3.70
2018-09-25T03:42:40.330Z,3.80
2018-09-25T03:45:15.899Z,3.80
2018-09-25T03:47:50.927Z,3.80
2018-09-25T03:50:25.939Z,3.70
2018-09-25T03:53:01.173Z,3.60
2018-09-25T03:55:36.232Z,3.50
2018-09-25T03:58:11.505Z,3.50
2018-09-25T04:00:46.502Z,3.40
2018-09-25T04:03:21.674Z,3.50
2018-09-25T04:05:56.842Z,3.50
2018-09-25T04:08:31.898Z,3.50
2018-09-25T04:11:07.147Z,3.50
2018-09-25T04:13:42.366Z,3.60
2018-09-25T04:16:17.571Z,3.60
2018-09-25T04:18:52.805Z,3.60
2018-09-25T04:21:27.864Z,3.50
2018-09-25T04:24:02.890Z,3.50
2018-09-25T04:26:38.165Z,3.50
2018-09-25T04:29:13.418Z,3.50
2018-09-25T04:31:48.549Z,3.50
2018-09-25T04:34:23.759Z,3.40
2018-09-25T04:36:58.837Z,3.40
2018-09-25T04:39:33.947Z,3.40
2018-09-25T04:42:09.107Z,3.40
2018-09-25T04:44:44.447Z,3.40
2018-09-25T04:47:19.518Z,3.50
2018-09-25T04:49:54.510Z,3.50
2018-09-25T04:52:29.657Z,3.50
2018-09-25T04:55:04.927Z,3.40
2018-09-25T04:57:39.914Z,3.40
2018-09-25T05:00:15.078Z,3.30
2018-09-25T05:02:50.033Z,3.30
2018-09-25T05:05:25.321Z,3.30
2018-09-25T05:08:00.535Z,3.30
2018-09-25T05:10:35.738Z,3.30
2018-09-25T05:13:11.033Z,3.30
2018-09-25T05:15:46.017Z,3.30
2018-09-25T05:18:21.084Z,3.30
2018-09-25T05:20:56.263Z,3.40
2018-09-25T05:23:31.344Z,3.40
2018-09-25T05:26:06.632Z,3.40
2018-09-25T05:28:41.879Z,3.40
2018-09-25T05:31:16.933Z,3.40
2018-09-25T05:33:52.100Z,3.50
2018-09-25T05:36:27.342Z,3.40
2018-09-25T05:39:02.419Z,3.40
2018-09-25T05:41:37.626Z,3.40
2018-09-25T05:44:12.776Z,3.50
2018-09-25T05:46:47.831Z,3.40
2018-09-25T05:49:22.860Z,3.50
2018-09-25T05:51:58.071Z,3.50
2018-09-25T05:54:33.295Z,3.50
2018-09-25T05:57:08.436Z,3.60
2018-09-25T05:59:43.481Z,3.60
2018-09-25T06:02:18.724Z,3.60
2018-09-25T06:04:53.813Z,3.70
2018-09-25T06:07:28.929Z,3.80
2018-09-25T06:10:04.154Z,3.90
2018-09-25T06:12:39.239Z,4.00
2018-09-25T06:15:14.588Z,4.10
2018-09-25T06:17:49.869Z,4.10
2018-09-25T06:20:25.020Z,4.20
2018-09-25T06:23:00.155Z,4.30
2018-09-25T06:25:35.338Z,4.40
2018-09-25T06:28:10.509Z,4.50
2018-09-25T06:30:45.636Z,4.70
2018-09-25T06:33:20.814Z,4.80
2018-09-25T06:35:56.999Z,5.00
2018-09-25T06:38:32.200Z,5.20
2018-09-25T06:41:08.330Z,5.30
2018-09-25T06:43:43.633Z,5.50
2018-09-25T06:46:19.215Z,5.60
2018-09-25T06:48:54.570Z,6.00
2018-09-25T06:51:30.067Z,7.10
2018-09-25T06:54:05.220Z,8.50
2018-09-25T06:56:40.563Z,9.90
2018-09-25T06:59:15.801Z,10.90
2018-09-25T07:01:50.945Z,11.70
2018-09-25T07:04:26.817Z,12.30
2018-09-25T07:07:02.163Z,12.70
2018-09-25T07:09:38.193Z,13.10
2018-09-25T07:12:13.634Z,13.70
2018-09-25T07:14:48.705Z,14.20
2018-09-25T07:17:23.987Z,14.70
2018-09-25T07:19:59.130Z,15.20
2018-09-25T07:22:34.243Z,15.50
2018-09-25T07:25:09.645Z,15.50
2018-09-25T07:27:44.706Z,15.70
2018-09-25T07:30:20.115Z,15.60
2018-09-25T07:32:55.192Z,15.90
2018-09-25T07:35:30.384Z,16.10
2018-09-25T07:38:05.545Z,16.60
2018-09-25T07:40:40.605Z,16.90
2018-09-25T07:43:15.817Z,16.60
2018-09-25T07:45:50.874Z,16.50
2018-09-25T07:48:25.945Z,16.50
2018-09-25T07:51:01.023Z,16.50
2018-09-25T07:53:36.218Z,16.80
2018-09-25T07:56:11.412Z,16.30
2018-09-25T07:58:46.449Z,16.50
2018-09-25T08:01:21.702Z,16.70
2018-09-25T08:03:56.772Z,16.40
2018-09-25T08:06:32.141Z,16.70
2018-09-25T08:09:07.320Z,17.10
2018-09-25T08:11:42.535Z,16.40
2018-09-25T08:14:17.775Z,16.60
2018-09-25T08:16:52.943Z,17.10
2018-09-25T08:19:28.103Z,16.70
2018-09-25T08:22:03.238Z,17.20
2018-09-25T08:24:38.453Z,17.40
2018-09-25T08:27:13.718Z,17.50
2018-09-25T08:29:49.011Z,17.60
2018-09-25T08:32:24.078Z,17.70
2018-09-25T08:34:59.149Z,17.90
2018-09-25T08:37:34.181Z,18.10
2018-09-25T08:40:09.331Z,18.50
2018-09-25T08:42:44.530Z,18.60
2018-09-25T08:45:26.523Z,18.70
2018-09-25T08:48:01.689Z,18.70
2018-09-25T08:50:36.879Z,18.60
2018-09-25T08:53:12.051Z,18.90
2018-09-25T08:55:47.034Z,18.90
2018-09-25T08:58:22.225Z,18.80
2018-09-25T09:00:57.356Z,18.10
2018-09-25T09:03:32.510Z,17.50
2018-09-25T09:06:07.694Z,17.10
2018-09-25T09:08:42.955Z,16.90
2018-09-25T09:11:18.100Z,17.40
2018-09-25T09:13:53.436Z,18.00
2018-09-25T09:16:28.588Z,18.30
2018-09-25T09:19:03.954Z,18.50
2018-09-25T09:21:39.130Z,18.40
2018-09-25T09:24:14.530Z,18.30
2018-09-25T09:26:49.787Z,17.30
2018-09-25T09:29:24.864Z,16.90
2018-09-25T09:32:00.112Z,16.50
2018-09-25T09:34:45.412Z,16.10
2018-09-25T09:37:20.756Z,15.80
2018-09-25T09:39:55.927Z,15.60
2018-09-25T09:42:31.075Z,15.60
2018-09-25T09:45:06.356Z,15.40
2018-09-25T09:47:41.465Z,15.30
2018-09-25T09:50:16.868Z,15.10
2018-09-25T09:52:51.823Z,15.20
2018-09-25T09:55:27.113Z,15.00
2018-09-25T09:58:02.167Z,14.60
2018-09-25T10:00:37.261Z,14.30
2018-09-25T10:03:12.571Z,14.10
2018-09-25T10:05:47.785Z,14.00
2018-09-25T10:08:22.881Z,14.10
2018-09-25T10:10:58.082Z,14.10
2018-09-25T10:13:33.193Z,13.90
2018-09-25T10:16:08.234Z,13.70
2018-09-25T10:18:43.604Z,13.50
2018-09-25T10:21:18.761Z,13.30
2018-09-25T10:23:54.052Z,13.00
2018-09-25T10:26:29.125Z,12.80
2018-09-25T10:29:04.362Z,12.70
2018-09-25T10:31:39.629Z,12.80
2018-09-25T10:34:14.875Z,13.00
2018-09-25T10:36:50.135Z,13.20
2018-09-25T10:39:25.408Z,13.30
2018-09-25T10:42:00.638Z,13.40
2018-09-25T10:44:35.713Z,13.40
2018-09-25T10:47:10.861Z,13.60
2018-09-25T10:49:46.116Z,14.00
2018-09-25T10:52:21.243Z,14.40
2018-09-25T10:54:56.425Z,14.70
2018-09-25T10:57:31.471Z,14.80
2018-09-25T11:00:06.610Z,15.10
2018-09-25T11:02:41.872Z,15.20
2018-09-25T11:05:17.002Z,15.50
2018-09-25T11:07:52.171Z,15.60
2018-09-25T11:10:27.305Z,15.60
2018-09-25T11:13:02.359Z,15.50
2018-09-25T11:15:37.578Z,15.50
2018-09-25T11:18:12.781Z,15.40
2018-09-25T11:20:48.044Z,15.30
2018-09-25T11:23:37.519Z,15.10
2018-09-25T11:26:12.600Z,14.80
2018-09-25T11:28:47.697Z,14.60
2018-09-25T11:31:22.818Z,14.40
2018-09-25T11:33:57.886Z,14.30
2018-09-25T11:36:32.912Z,14.40
2018-09-25T11:39:08.000Z,14.50
2018-09-25T11:41:43.179Z,14.70
2018-09-25T11:44:18.441Z,14.80
2018-09-25T11:46:53.878Z,14.90
2018-09-25T11:49:28.980Z,15.00
2018-09-25T11:52:04.226Z,15.10
2018-09-25T11:54:39.275Z,15.20
2018-09-25T11:57:14.501Z,15.30
2018-09-25T11:59:49.556Z,15.30
2018-09-25T12:02:24.763Z,15.40
2018-09-25T12:04:59.849Z,15.50
2018-09-25T12:07:34.932Z,15.60
2018-09-25T12:10:10.028Z,15.60
2018-09-25T12:12:45.188Z,15.60
2018-09-25T12:15:20.328Z,15.60
2018-09-25T12:17:55.514Z,15.70
2018-09-25T12:20:30.789Z,15.90
2018-09-25T12:23:06.088Z,16.10
2018-09-25T12:25:41.428Z,16.40
2018-09-25T12:28:16.588Z,16.60
2018-09-25T12:30:51.574Z,16.70
2018-09-25T12:33:26.617Z,16.80
2018-09-25T12:36:01.851Z,17.00
2018-09-25T12:38:37.071Z,16.90
2018-09-25T12:41:12.496Z,17.20
2018-09-25T12:43:47.719Z,17.30
2018-09-25T12:46:22.899Z,17.40
2018-09-25T12:48:58.016Z,17.10
2018-09-25T12:51:33.071Z,17.30
2018-09-25T12:54:08.325Z,17.50
2018-09-25T12:56:43.413Z,17.70
2018-09-25T12:59:18.580Z,17.80
2018-09-25T13:01:53.834Z,18.20
2018-09-25T13:04:28.923Z,18.10
2018-09-25T13:07:04.037Z,18.00
2018-09-25T13:09:39.282Z,17.70
2018-09-25T13:12:15.338Z,17.40
2018-09-25T13:14:50.556Z,17.30
2018-09-25T13:17:25.665Z,17.10
2018-09-25T13:20:00.790Z,16.80
2018-09-25T13:22:35.870Z,16.80
2018-09-25T13:25:11.148Z,16.80
2018-09-25T13:27:46.411Z,16.90
2018-09-25T13:30:22.318Z,17.20
2018-09-25T13:32:57.490Z,17.60
2018-09-25T13:35:32.566Z,17.80
2018-09-25T13:38:07.719Z,18.10
2018-09-25T13:40:43.156Z,18.30
2018-09-25T13:43:18.442Z,18.30
2018-09-25T13:45:53.747Z,18.30
2018-09-25T13:48:28.982Z,17.90
2018-09-25T13:51:04.033Z,17.70
2018-09-25T13:53:39.240Z,17.60
2018-09-25T13:56:14.519Z,17.70
2018-09-25T13:58:49.652Z,17.40
2018-09-25T14:01:24.788Z,17.30
2018-09-25T14:03:59.998Z,17.20
2018-09-25T14:06:35.060Z,17.20
2018-09-25T14:09:12.650Z,17.40
2018-09-25T14:11:48.175Z,17.20
2018-09-25T14:14:23.371Z,17.00
2018-09-25T14:16:58.528Z,17.20
2018-09-25T14:19:33.738Z,17.10
2018-09-25T14:22:09.061Z,17.20
2018-09-25T14:24:44.288Z,17.20
2018-09-25T14:27:19.437Z,17.30
2018-09-25T14:29:54.420Z,17.10
2018-09-25T14:32:29.511Z,17.20
2018-09-25T14:35:04.772Z,17.10
2018-09-25T14:37:39.802Z,16.90
2018-09-25T14:40:15.036Z,16.80
2018-09-25T14:42:50.123Z,16.80
2018-09-25T14:45:25.200Z,16.70
2018-09-25T14:48:00.372Z,16.80
2018-09-25T14:50:35.564Z,16.40
2018-09-25T14:53:10.742Z,16.20
2018-09-25T14:55:46.018Z,16.20
2018-09-25T14:58:21.274Z,16.10
2018-09-25T15:00:56.513Z,16.00
2018-09-25T15:03:31.734Z,15.70
2018-09-25T15:06:07.327Z,15.50
2018-09-25T15:08:42.492Z,15.30
2018-09-25T15:11:17.811Z,15.30
2018-09-25T15:13:53.066Z,15.10
2018-09-25T15:16:28.329Z,15.00
2018-09-25T15:19:03.571Z,14.90
2018-09-25T15:21:38.747Z,14.70
2018-09-25T15:24:13.873Z,14.70
2018-09-25T15:26:49.216Z,14.70
2018-09-25T15:29:24.307Z,14.90
2018-09-25T15:31:59.543Z,14.80
2018-09-25T15:34:34.805Z,14.60
2018-09-25T15:37:09.847Z,14.60
2018-09-25T15:39:45.064Z,15.00
2018-09-25T15:42:20.197Z,15.60
2018-09-25T15:44:55.317Z,16.30
2018-09-25T15:47:30.578Z,16.70
2018-09-25T15:50:05.697Z,17.00
2018-09-25T15:52:41.049Z,17.00
2018-09-25T15:55:16.395Z,17.00
2018-09-25T15:57:51.572Z,16.70
2018-09-25T16:00:26.687Z,16.20
2018-09-25T16:03:01.923Z,15.90
2018-09-25T16:05:37.040Z,15.60
2018-09-25T16:08:12.558Z,15.30
2018-09-25T16:10:47.594Z,15.10
2018-09-25T16:13:22.891Z,14.90
2018-09-25T16:15:58.113Z,14.80
2018-09-25T16:18:33.291Z,14.70
2018-09-25T16:21:08.413Z,14.50
2018-09-25T16:23:43.755Z,14.40
2018-09-25T16:26:18.979Z,14.30
2018-09-25T16:28:54.022Z,14.30
2018-09-25T16:31:29.033Z,14.20
2018-09-25T16:34:04.336Z,14.10
2018-09-25T16:36:39.546Z,14.10
2018-09-25T16:39:16.129Z,14.20
2018-09-25T16:41:51.088Z,14.30
2018-09-25T16:44:26.377Z,14.30
2018-09-25T16:47:01.594Z,14.20
2018-09-25T16:49:36.910Z,14.00
2018-09-25T16:52:12.092Z,13.70
2018-09-25T16:54:47.348Z,13.60
2018-09-25T16:57:22.481Z,13.30
2018-09-25T16:59:57.661Z,13.20
2018-09-25T17:02:32.884Z,13.10
2018-09-25T17:05:07.956Z,12.90
2018-09-25T17:07:43.052Z,12.80
2018-09-25T17:10:18.344Z,12.60
2018-09-25T17:12:53.400Z,12.40
2018-09-25T17:15:28.529Z,12.30
2018-09-25T17:18:03.776Z,12.10
2018-09-25T17:20:38.900Z,12.00
2018-09-25T17:23:14.155Z,11.80
2018-09-25T17:25:49.304Z,11.60
2018-09-25T17:28:25.400Z,11.40
2018-09-25T17:31:00.731Z,11.30
2018-09-25T17:33:36.049Z,11.20
2018-09-25T17:36:11.269Z,11.10
2018-09-25T17:38:46.361Z,11.10
2018-09-25T17:41:21.512Z,11.00
2018-09-25T17:43:56.801Z,10.90
2018-09-25T17:46:32.073Z,10.70
2018-09-25T17:49:07.284Z,10.60
2018-09-25T17:51:42.522Z,10.60
2018-09-25T17:54:17.575Z,10.50
2018-09-25T17:56:52.687Z,10.40
2018-09-25T17:59:27.795Z,10.30
2018-09-25T18:02:03.018Z,10.30
2018-09-25T18:04:38.277Z,10.20
2018-09-25T18:07:13.526Z,10.10
2018-09-25T18:09:48.766Z,10.10
2018-09-25T18:12:23.976Z,10.00
2018-09-25T18:14:59.269Z,10.00
2018-09-25T18:17:34.350Z,9.90
2018-09-25T18:20:09.690Z,9.80
2018-09-25T18:22:44.954Z,9.70
2018-09-25T18:25:20.143Z,9.60
2018-09-25T18:27:55.218Z,9.50
2018-09-25T18:30:30.258Z,9.30
2018-09-25T18:33:05.349Z,9.20
2018-09-25T18:35:40.564Z,9.20
2018-09-25T18:38:15.589Z,9.10
2018-09-25T18:40:50.716Z,9.00
2018-09-25T18:43:25.944Z,9.00
2018-09-25T18:46:01.251Z,8.90
2018-09-25T18:48:36.326Z,8.80
2018-09-25T18:51:11.631Z,8.80
2018-09-25T18:53:46.811Z,8.70
2018-09-25T18:56:22.118Z,8.70
2018-09-25T18:58:57.208Z,8.60
2018-09-25T19:01:32.342Z,8.50
2018-09-25T19:04:07.569Z,8.50
2018-09-25T19:06:42.713Z,8.50
2018-09-25T19:09:17.957Z,8.50
2018-09-25T19:11:53.169Z,8.50
2018-09-25T19:14:28.352Z,8.50
2018-09-25T19:17:03.440Z,8.50
2018-09-25T19:19:38.623Z,8.50
2018-09-25T19:22:13.934Z,8.50
2018-09-25T19:24:49.309Z,8.50
2018-09-25T19:27:27.876Z,8.50
2018-09-25T19:30:04.458Z,8.50
2018-09-25T19:32:40.563Z,8.50
2018-09-25T19:35:16.042Z,8.40
2018-09-25T19:37:51.187Z,8.40
2018-09-25T19:40:26.309Z,8.40
2018-09-25T19:43:03.015Z,8.40
2018-09-25T19:45:38.380Z,8.40
2018-09-25T19:48:13.588Z,8.30
2018-09-25T19:50:48.704Z,8.30
2018-09-25T19:53:23.954Z,8.20
2018-09-25T19:55:59.254Z,8.20
2018-09-25T19:58:34.385Z,8.10
2018-09-25T20:01:09.433Z,8.10
2018-09-25T20:03:44.476Z,8.00
2018-09-25T20:06:19.697Z,8.00
2018-09-25T20:08:54.956Z,7.90
2018-09-25T20:11:30.077Z,7.90
2018-09-25T20:14:05.320Z,7.80
2018-09-25T20:16:40.553Z,7.80
2018-09-25T20:19:15.792Z,7.80
2018-09-25T20:21:50.808Z,7.80
2018-09-25T20:24:26.002Z,7.80
2018-09-25T20:27:01.200Z,7.70
2018-09-25T20:29:36.574Z,7.70
2018-09-25T20:32:12.053Z,7.70
2018-09-25T20:34:47.143Z,7.70
2018-09-25T20:37:22.420Z,7.60
2018-09-25T20:39:57.687Z,7.50
2018-09-25T20:42:32.981Z,7.50
2018-09-25T20:45:08.097Z,7.50
2018-09-25T20:47:43.169Z,7.50
2018-09-25T20:50:18.513Z,7.50
2018-09-25T20:52:53.815Z,7.50
2018-09-25T20:55:29.148Z,7.40
2018-09-25T20:58:04.271Z,7.40
2018-09-25T21:00:39.494Z,7.30
2018-09-25T21:03:14.812Z,7.30
2018-09-25T21:05:49.848Z,7.20
2018-09-25T21:08:25.032Z,7.20
2018-09-25T21:11:00.360Z,7.20
2018-09-25T21:13:35.418Z,7.20
2018-09-25T21:16:10.716Z,7.20
2018-09-25T21:18:45.779Z,7.30
2018-09-25T21:21:21.184Z,7.30
2018-09-25T21:23:56.354Z,7.30
2018-09-25T21:26:31.457Z,7.30
2018-09-25T21:29:06.809Z,7.20
2018-09-25T21:31:42.099Z,7.10
2018-09-25T21:34:17.221Z,7.10
2018-09-25T21:36:52.392Z,7.00
2018-09-25T21:39:27.617Z,6.90
2018-09-25T21:42:02.968Z,6.90
2018-09-25T21:44:38.368Z,6.90
2018-09-25T21:47:13.618Z,6.90
2018-09-25T21:49:48.763Z,6.90
2018-09-25T21:52:24.137Z,6.80
2018-09-25T21:54:59.205Z,6.80
2018-09-25T21:57:34.557Z,6.80
2018-09-25T22:00:10.350Z,6.70
2018-09-25T22:02:45.424Z,6.70
2018-09-25T22:05:20.776Z,6.70
2018-09-25T22:07:55.919Z,6.70
2018-09-25T22:10:31.300Z,6.70
2018-09-25T22:13:06.520Z,6.60
2018-09-25T22:15:41.658Z,6.60
2018-09-25T22:18:16.942Z,6.50
2018-09-25T22:20:51.997Z,6.50
2018-09-25T22:23:27.458Z,6.50
2018-09-25T22:26:02.703Z,6.50
2018-09-25T22:28:37.955Z,6.50
2018-09-25T22:31:13.131Z,6.50
2018-09-25T22:33:48.384Z,6.50
2018-09-25T22:36:23.535Z,6.50
2018-09-25T22:38:58.780Z,6.40
2018-09-25T22:41:33.921Z,6.40
2018-09-25T22:44:09.343Z,6.40
2018-09-25T22:46:44.616Z,6.30
2018-09-25T22:49:20.008Z,6.30
2018-09-25T22:51:55.251Z,6.30
2018-09-25T22:54:30.399Z,6.30
2018-09-25T22:57:05.620Z,6.30
2018-09-25T22:59:40.709Z,6.20
2018-09-25T23:02:16.067Z,6.20
2018-09-25T23:04:51.382Z,6.20
2018-09-25T23:07:26.514Z,6.20
2018-09-25T23:10:01.835Z,6.10
2018-09-25T23:12:37.072Z,6.10
2018-09-25T23:15:12.418Z,6.10
2018-09-25T23:17:47.696Z,6.10
2018-09-25T23:20:23.089Z,6.10
2018-09-25T23:22:58.452Z,6.10
2018-09-25T23:25:33.561Z,6.00
2018-09-25T23:28:08.932Z,6.00
2018-09-25T23:30:44.183Z,6.10
2018-09-25T23:33:19.276Z,6.10
2018-09-25T23:35:54.527Z,6.10
2018-09-25T23:38:29.840Z,6.10
2018-09-25T23:41:09.049Z,6.10
2018-09-25T23:44:43.765Z,6.10
2018-09-25T23:47:21.882Z,6.00
2018-09-25T23:50:04.679Z,6.00
2018-09-25T23:52:39.867Z,5.90
2018-09-25T23:55:31.580Z,5.90
2018-09-25T23:58:05.903Z,5.80
